createdAt,value
2023-11-26T00:00:59.869Z,-1.12
2023-11-26T00:03:32.325Z,-1.13
2023-11-26T00:06:01.437Z,-1.19
2023-11-26T00:08:28.430Z,-1.19
2023-11-26T00:10:56.509Z,-1.25
2023-11-26T00:13:27.807Z,-1.23
2023-11-26T00:15:54.969Z,-1.26
2023-11-26T00:18:22.166Z,-1.34
2023-11-26T00:20:49.111Z,-1.28
2023-11-26T00:23:17.035Z,-1.31
2023-11-26T00:25:43.935Z,-1.30
2023-11-26T00:28:13.191Z,-1.35
2023-11-26T00:30:40.246Z,-1.40
2023-11-26T00:33:09.428Z,-1.46
2023-11-26T00:35:37.956Z,-1.47
2023-11-26T00:38:06.766Z,-1.52
2023-11-26T00:40:35.528Z,-1.56
2023-11-26T00:43:02.886Z,-1.63
2023-11-26T00:45:31.538Z,-1.68
2023-11-26T00:48:02.499Z,-1.64
2023-11-26T00:50:32.367Z,-1.65
2023-11-26T00:53:00.954Z,-1.68
2023-11-26T00:55:30.272Z,-1.69
2023-11-26T00:57:58.503Z,-1.74
2023-11-26T01:00:26.498Z,-1.68
2023-11-26T01:02:58.352Z,-1.68
2023-11-26T01:05:25.467Z,-1.64
2023-11-26T01:07:54.461Z,-1.68
2023-11-26T01:10:25.140Z,-1.66
2023-11-26T01:12:53.392Z,-1.63
2023-11-26T01:15:21.176Z,-1.59
2023-11-26T01:17:49.138Z,-1.63
2023-11-26T01:20:16.306Z,-1.62
2023-11-26T01:22:44.362Z,-1.63
2023-11-26T01:25:12.446Z,-1.69
2023-11-26T01:27:42.591Z,-1.70
2023-11-26T01:30:10.797Z,-1.74
2023-11-26T01:32:37.819Z,-1.72
2023-11-26T01:35:06.062Z,-1.72
2023-11-26T01:37:34.566Z,-1.72
2023-11-26T01:40:02.586Z,-1.73
2023-11-26T01:42:29.917Z,-1.74
2023-11-26T01:44:57.072Z,-1.70
2023-11-26T01:47:25.830Z,-1.71
2023-11-26T01:49:53.279Z,-1.72
2023-11-26T01:52:20.320Z,-1.69
2023-11-26T01:54:47.474Z,-1.69
2023-11-26T01:57:17.646Z,-1.70
2023-11-26T01:59:44.844Z,-1.75
2023-11-26T02:02:11.978Z,-1.69
2023-11-26T02:04:39.257Z,-1.70
2023-11-26T02:07:07.380Z,-1.71
2023-11-26T02:09:34.558Z,-1.75
2023-11-26T02:12:03.707Z,-1.74
2023-11-26T02:14:32.466Z,-1.77
2023-11-26T02:17:04.558Z,-1.75
2023-11-26T02:19:39.978Z,-1.73
2023-11-26T02:22:11.069Z,-1.70
2023-11-26T02:24:53.896Z,-1.71
2023-11-26T02:27:21.359Z,-1.78
2023-11-26T02:29:48.397Z,-1.81
2023-11-26T02:32:15.477Z,-1.80
2023-11-26T02:34:43.118Z,-1.80
2023-11-26T02:37:10.123Z,-1.82
2023-11-26T02:39:37.001Z,-1.84
2023-11-26T02:42:04.182Z,-1.82
2023-11-26T02:44:31.491Z,-1.86
2023-11-26T02:46:59.179Z,-1.88
2023-11-26T02:49:28.324Z,-1.85
2023-11-26T02:51:55.336Z,-1.82
2023-11-26T02:54:22.456Z,-1.81
2023-11-26T02:56:50.257Z,-1.86
2023-11-26T02:59:17.518Z,-1.90
2023-11-26T03:01:44.609Z,-1.88
2023-11-26T03:04:11.842Z,-1.82
2023-11-26T03:06:40.748Z,-1.89
2023-11-26T03:09:26.497Z,-1.84
2023-11-26T03:12:13.556Z,-1.87
2023-11-26T03:14:41.024Z,-1.89
2023-11-26T03:17:08.581Z,-1.91
2023-11-26T03:19:35.657Z,-1.88
2023-11-26T03:22:08.965Z,-1.91
2023-11-26T03:24:36.124Z,-1.88
2023-11-26T03:27:04.147Z,-1.83
2023-11-26T03:29:31.210Z,-1.83
2023-11-26T03:31:58.468Z,-1.87
2023-11-26T03:34:29.877Z,-1.85
2023-11-26T03:36:58.294Z,-1.80
2023-11-26T03:39:26.142Z,-1.83
2023-11-26T03:41:53.098Z,-1.83
2023-11-26T03:44:20.373Z,-1.93
2023-11-26T03:46:47.553Z,-1.87
2023-11-26T03:49:14.507Z,-1.87
2023-11-26T03:51:41.461Z,-1.85
2023-11-26T03:54:08.684Z,-1.85
2023-11-26T03:56:35.597Z,-1.84
2023-11-26T03:59:02.636Z,-1.82
2023-11-26T04:01:29.634Z,-1.85
2023-11-26T04:03:56.741Z,-1.89
2023-11-26T04:06:24.256Z,-1.88
2023-11-26T04:08:51.193Z,-1.92
2023-11-26T04:11:18.141Z,-1.89
2023-11-26T04:13:45.271Z,-1.90
2023-11-26T04:16:14.738Z,-1.87
2023-11-26T04:18:41.696Z,-1.90
2023-11-26T04:21:11.389Z,-1.87
2023-11-26T04:23:38.610Z,-1.84
2023-11-26T04:26:08.172Z,-1.83
2023-11-26T04:28:35.460Z,-1.88
2023-11-26T04:31:03.875Z,-1.89
2023-11-26T04:33:30.877Z,-1.81
2023-11-26T04:35:57.959Z,-1.84
2023-11-26T04:38:25.227Z,-1.78
2023-11-26T04:40:52.615Z,-1.77
2023-11-26T04:43:19.669Z,-1.81
2023-11-26T04:45:46.803Z,-1.80
2023-11-26T04:48:13.997Z,-1.81
2023-11-26T04:50:40.922Z,-1.80
2023-11-26T04:53:07.944Z,-1.81
2023-11-26T04:55:34.952Z,-1.85
2023-11-26T04:58:01.828Z,-1.84
2023-11-26T05:00:30.276Z,-1.88
2023-11-26T05:02:57.312Z,-1.81
2023-11-26T05:05:24.645Z,-1.88
2023-11-26T05:07:51.610Z,-1.82
2023-11-26T05:10:18.681Z,-1.81
2023-11-26T05:12:45.548Z,-1.77
2023-11-26T05:15:12.655Z,-1.77
2023-11-26T05:17:40.070Z,-1.78
2023-11-26T05:20:14.753Z,-1.71
2023-11-26T05:22:42.141Z,-1.76
2023-11-26T05:25:09.252Z,-1.73
2023-11-26T05:27:36.388Z,-1.77
2023-11-26T05:30:04.965Z,-1.73
2023-11-26T05:32:32.118Z,-1.72
2023-11-26T05:34:59.982Z,-1.71
2023-11-26T05:37:26.957Z,-1.69
2023-11-26T05:39:53.889Z,-1.70
2023-11-26T05:42:20.718Z,-1.67
2023-11-26T05:44:47.604Z,-1.69
2023-11-26T05:47:14.715Z,-1.79
2023-11-26T05:49:41.751Z,-1.73
2023-11-26T05:52:08.677Z,-1.73
2023-11-26T05:54:35.774Z,-1.79
2023-11-26T05:57:02.665Z,-1.78
2023-11-26T05:59:29.593Z,-1.70
2023-11-26T06:01:56.894Z,-1.69
2023-11-26T06:04:24.938Z,-1.73
2023-11-26T06:06:52.277Z,-1.67
2023-11-26T06:09:19.213Z,-1.63
2023-11-26T06:11:47.314Z,-1.64
2023-11-26T06:14:14.587Z,-1.55
2023-11-26T06:16:45.278Z,-1.44
2023-11-26T06:19:12.992Z,-1.40
2023-11-26T06:21:39.938Z,-1.32
2023-11-26T06:24:07.824Z,-1.28
2023-11-26T06:26:36.420Z,-1.25
2023-11-26T06:29:03.748Z,-1.16
2023-11-26T06:31:31.574Z,-1.09
2023-11-26T06:33:59.019Z,-0.95
2023-11-26T06:36:26.844Z,-0.86
2023-11-26T06:38:55.476Z,-0.76
2023-11-26T06:41:29.407Z,-0.66
2023-11-26T06:43:57.912Z,-0.53
2023-11-26T06:46:25.691Z,-0.54
2023-11-26T06:48:52.838Z,-0.50
2023-11-26T06:51:19.821Z,-0.35
2023-11-26T06:53:47.613Z,-0.29
2023-11-26T06:56:15.422Z,-0.24
2023-11-26T06:58:44.943Z,-0.19
2023-11-26T07:01:12.992Z,-0.08
2023-11-26T07:03:40.765Z,0.00
2023-11-26T07:06:10.102Z,0.07
2023-11-26T07:08:39.010Z,0.18
2023-11-26T07:11:20.097Z,0.26
2023-11-26T07:13:49.361Z,0.38
2023-11-26T07:16:18.455Z,0.41
2023-11-26T07:18:46.678Z,0.50
2023-11-26T07:21:13.836Z,0.54
2023-11-26T07:23:41.041Z,0.52
2023-11-26T07:26:16.471Z,0.65
2023-11-26T07:28:43.518Z,0.53
2023-11-26T07:31:18.368Z,0.65
2023-11-26T07:33:46.870Z,0.66
2023-11-26T07:36:20.937Z,0.69
2023-11-26T07:38:48.067Z,0.75
2023-11-26T07:41:15.056Z,0.77
2023-11-26T07:43:43.032Z,0.87
2023-11-26T07:46:11.441Z,0.96
2023-11-26T07:48:39.977Z,1.01
2023-11-26T07:51:07.513Z,0.96
2023-11-26T07:53:35.129Z,1.11
2023-11-26T07:56:02.593Z,1.12
2023-11-26T07:58:33.121Z,1.17
2023-11-26T08:01:00.458Z,1.19
2023-11-26T08:03:28.608Z,1.30
2023-11-26T08:05:55.941Z,1.20
2023-11-26T08:08:23.937Z,1.34
2023-11-26T08:10:52.258Z,1.32
2023-11-26T08:13:24.320Z,1.32
2023-11-26T08:15:51.888Z,1.36
2023-11-26T08:18:19.779Z,1.41
2023-11-26T08:20:48.481Z,1.38
2023-11-26T08:23:15.532Z,1.48
2023-11-26T08:25:47.841Z,1.58
2023-11-26T08:28:17.719Z,1.66
2023-11-26T08:30:49.134Z,1.88
2023-11-26T08:33:22.514Z,2.03
2023-11-26T08:35:57.741Z,1.99
2023-11-26T08:38:25.725Z,2.01
2023-11-26T08:40:55.592Z,2.16
2023-11-26T08:43:22.979Z,2.22
2023-11-26T08:45:50.260Z,2.36
2023-11-26T08:48:18.350Z,2.52
2023-11-26T08:50:45.301Z,2.47
2023-11-26T08:53:14.131Z,2.53
2023-11-26T08:55:41.381Z,2.62
2023-11-26T08:58:08.719Z,2.66
2023-11-26T09:00:36.102Z,2.65
2023-11-26T09:03:03.103Z,2.58
2023-11-26T09:05:30.233Z,2.59
2023-11-26T09:07:57.357Z,2.53
2023-11-26T09:10:24.761Z,2.51
2023-11-26T09:12:52.118Z,2.56
2023-11-26T09:15:19.470Z,2.74
2023-11-26T09:17:46.693Z,3.00
2023-11-26T09:20:14.334Z,2.97
2023-11-26T09:22:42.187Z,3.20
2023-11-26T09:25:10.967Z,3.22
2023-11-26T09:27:38.116Z,3.34
2023-11-26T09:30:09.763Z,3.38
2023-11-26T09:32:37.152Z,3.15
2023-11-26T09:35:04.557Z,3.05
2023-11-26T09:37:31.558Z,3.03
2023-11-26T09:39:58.670Z,3.02
2023-11-26T09:42:26.523Z,2.96
2023-11-26T09:44:53.720Z,3.03
2023-11-26T09:47:20.895Z,2.99
2023-11-26T09:49:48.684Z,2.93
2023-11-26T09:52:18.304Z,2.98
2023-11-26T09:54:45.325Z,3.07
2023-11-26T09:57:14.249Z,3.23
2023-11-26T09:59:41.586Z,3.31
2023-11-26T10:02:11.702Z,3.47
2023-11-26T10:04:46.181Z,3.50
2023-11-26T10:07:13.205Z,3.68
2023-11-26T10:09:40.346Z,3.71
2023-11-26T10:12:07.906Z,4.04
2023-11-26T10:14:34.924Z,4.24
2023-11-26T10:17:13.394Z,3.99
2023-11-26T10:19:41.364Z,4.02
2023-11-26T10:22:08.378Z,3.95
2023-11-26T10:24:35.316Z,3.76
2023-11-26T10:27:15.396Z,3.63
2023-11-26T10:29:44.645Z,3.61
2023-11-26T10:32:14.021Z,3.71
2023-11-26T10:34:43.112Z,3.65
2023-11-26T10:37:21.823Z,3.65
2023-11-26T10:40:00.111Z,3.67
2023-11-26T10:42:30.945Z,3.80
2023-11-26T10:44:59.845Z,3.88
2023-11-26T10:47:29.541Z,3.83
2023-11-26T10:50:06.223Z,3.85
2023-11-26T10:52:47.324Z,3.83
2023-11-26T10:55:31.334Z,3.84
2023-11-26T10:58:17.202Z,3.86
2023-11-26T11:00:49.846Z,3.75
2023-11-26T11:03:17.293Z,3.67
2023-11-26T11:05:48.533Z,3.75
2023-11-26T11:08:17.412Z,3.87
2023-11-26T11:11:19.194Z,4.08
2023-11-26T11:13:47.618Z,4.15
2023-11-26T11:16:14.640Z,4.09
2023-11-26T11:18:47.535Z,4.08
2023-11-26T11:21:18.487Z,4.08
2023-11-26T11:23:51.398Z,4.11
2023-11-26T11:26:19.865Z,4.02
2023-11-26T11:28:49.335Z,4.03
2023-11-26T11:31:18.880Z,4.32
2023-11-26T11:33:59.233Z,4.50
2023-11-26T11:36:46.133Z,4.52
2023-11-26T11:39:17.226Z,4.38
2023-11-26T11:42:00.039Z,4.41
2023-11-26T11:44:46.093Z,4.47
2023-11-26T11:47:34.056Z,4.43
2023-11-26T11:50:01.827Z,4.32
2023-11-26T11:52:28.736Z,4.24
2023-11-26T11:55:06.908Z,4.26
2023-11-26T11:57:48.372Z,4.41
2023-11-26T12:00:22.895Z,4.47
2023-11-26T12:02:51.229Z,4.38
2023-11-26T12:05:26.759Z,4.27
2023-11-26T12:07:54.751Z,4.22
2023-11-26T12:10:29.697Z,4.33
2023-11-26T12:13:08.057Z,4.32
2023-11-26T12:15:36.411Z,4.47
2023-11-26T12:18:03.595Z,4.38
2023-11-26T12:20:30.920Z,4.26
2023-11-26T12:22:58.373Z,4.30
2023-11-26T12:25:25.428Z,4.38
2023-11-26T12:28:10.570Z,4.31
2023-11-26T12:30:39.651Z,4.29
2023-11-26T12:33:09.120Z,4.17
2023-11-26T12:35:39.293Z,4.01
2023-11-26T12:38:08.299Z,3.98
2023-11-26T12:40:37.500Z,3.94
2023-11-26T12:43:04.995Z,3.89
2023-11-26T12:45:32.205Z,3.82
2023-11-26T12:47:59.480Z,3.89
2023-11-26T12:50:40.374Z,3.95
2023-11-26T12:53:12.954Z,4.09
2023-11-26T12:55:47.118Z,3.97
2023-11-26T12:58:26.404Z,4.01
2023-11-26T13:00:53.665Z,3.99
2023-11-26T13:03:21.775Z,3.97
2023-11-26T13:05:50.253Z,3.91
2023-11-26T13:08:22.767Z,3.80
2023-11-26T13:10:56.817Z,3.77
2023-11-26T13:13:34.624Z,3.69
2023-11-26T13:16:04.659Z,3.72
2023-11-26T13:18:32.112Z,3.65
2023-11-26T13:21:02.915Z,3.65
2023-11-26T13:23:30.657Z,3.61
2023-11-26T13:25:59.278Z,3.66
2023-11-26T13:28:28.564Z,3.62
2023-11-26T13:30:55.700Z,3.49
2023-11-26T13:33:23.121Z,3.36
2023-11-26T13:35:51.654Z,3.36
2023-11-26T13:38:19.206Z,3.39
2023-11-26T13:40:49.373Z,3.31
2023-11-26T13:43:20.989Z,3.30
2023-11-26T13:45:48.498Z,3.30
2023-11-26T13:48:15.884Z,3.29
2023-11-26T13:50:43.469Z,3.22
2023-11-26T13:53:11.042Z,3.24
2023-11-26T13:55:38.004Z,3.22
2023-11-26T13:58:06.782Z,3.13
2023-11-26T14:00:34.144Z,3.13
2023-11-26T14:03:03.100Z,3.08
2023-11-26T14:05:30.735Z,3.05
2023-11-26T14:07:58.009Z,3.06
2023-11-26T14:10:28.661Z,3.08
2023-11-26T14:13:09.351Z,3.10
2023-11-26T14:15:37.030Z,3.09
2023-11-26T14:18:07.629Z,3.10
2023-11-26T14:20:39.098Z,3.05
2023-11-26T14:23:09.168Z,3.06
2023-11-26T14:25:36.446Z,3.09
2023-11-26T14:28:04.006Z,3.05
2023-11-26T14:30:32.639Z,3.01
2023-11-26T14:33:00.124Z,2.98
2023-11-26T14:35:27.118Z,2.90
2023-11-26T14:37:55.415Z,2.80
2023-11-26T14:40:23.429Z,2.71
2023-11-26T14:42:50.670Z,2.61
2023-11-26T14:45:17.728Z,2.49
2023-11-26T14:47:46.445Z,2.43
2023-11-26T14:50:19.240Z,2.36
2023-11-26T14:52:47.849Z,2.33
2023-11-26T14:55:15.429Z,2.25
2023-11-26T14:57:43.452Z,2.21
2023-11-26T15:00:12.124Z,2.21
2023-11-26T15:02:39.780Z,2.18
2023-11-26T15:05:08.407Z,2.15
2023-11-26T15:07:35.613Z,2.11
2023-11-26T15:10:04.609Z,2.09
2023-11-26T15:12:31.876Z,2.05
2023-11-26T15:14:58.947Z,1.99
2023-11-26T15:17:25.933Z,1.97
2023-11-26T15:19:53.285Z,1.97
2023-11-26T15:22:20.341Z,1.91
2023-11-26T15:24:49.773Z,1.87
2023-11-26T15:27:17.177Z,1.86
2023-11-26T15:29:45.644Z,1.83
2023-11-26T15:32:13.365Z,1.85
2023-11-26T15:34:41.113Z,1.88
2023-11-26T15:37:10.737Z,1.86
2023-11-26T15:39:38.017Z,1.86
2023-11-26T15:42:05.459Z,1.92
2023-11-26T15:44:32.503Z,1.84
2023-11-26T15:46:59.604Z,1.83
2023-11-26T15:49:27.360Z,1.83
2023-11-26T15:51:55.390Z,1.81
2023-11-26T15:54:22.534Z,1.74
2023-11-26T15:56:53.554Z,1.74
2023-11-26T15:59:24.477Z,1.69
2023-11-26T16:01:52.768Z,1.66
2023-11-26T16:04:20.348Z,1.68
2023-11-26T16:06:47.776Z,1.65
2023-11-26T16:09:15.086Z,1.63
2023-11-26T16:11:43.853Z,1.55
2023-11-26T16:14:10.917Z,1.53
2023-11-26T16:16:37.874Z,1.48
2023-11-26T16:19:05.135Z,1.48
2023-11-26T16:21:32.880Z,1.44
2023-11-26T16:24:00.190Z,1.40
2023-11-26T16:26:29.129Z,1.39
2023-11-26T16:28:56.257Z,1.33
2023-11-26T16:31:23.713Z,1.34
2023-11-26T16:33:54.216Z,1.32
2023-11-26T16:36:23.583Z,1.28
2023-11-26T16:38:50.776Z,1.21
2023-11-26T16:41:20.720Z,1.18
2023-11-26T16:43:48.513Z,1.18
2023-11-26T16:46:17.744Z,1.18
2023-11-26T16:48:47.063Z,1.13
2023-11-26T16:51:14.978Z,1.03
2023-11-26T16:53:42.867Z,0.98
2023-11-26T16:56:11.519Z,0.93
2023-11-26T16:58:40.019Z,0.89
2023-11-26T17:01:08.940Z,0.87
2023-11-26T17:03:36.555Z,0.86
2023-11-26T17:06:04.736Z,0.87
2023-11-26T17:08:31.829Z,0.86
2023-11-26T17:10:59.515Z,0.84
2023-11-26T17:13:27.790Z,0.87
2023-11-26T17:15:55.314Z,0.89
2023-11-26T17:18:22.801Z,0.94
2023-11-26T17:20:51.465Z,1.00
2023-11-26T17:23:18.916Z,1.06
2023-11-26T17:25:52.266Z,1.10
2023-11-26T17:28:20.382Z,1.10
2023-11-26T17:30:50.808Z,1.14
2023-11-26T17:33:19.395Z,1.13
2023-11-26T17:35:47.395Z,1.10
2023-11-26T17:38:14.546Z,1.08
2023-11-26T17:40:42.449Z,0.99
2023-11-26T17:43:10.487Z,0.90
2023-11-26T17:45:37.622Z,0.84
2023-11-26T17:48:05.504Z,0.85
2023-11-26T17:50:33.953Z,0.83
2023-11-26T17:53:07.818Z,0.84
2023-11-26T17:55:40.300Z,0.81
2023-11-26T17:58:07.552Z,0.79
2023-11-26T18:00:35.959Z,0.77
2023-11-26T18:03:02.966Z,0.75
2023-11-26T18:05:30.157Z,0.73
2023-11-26T18:07:58.448Z,0.66
2023-11-26T18:10:25.642Z,0.63
2023-11-26T18:12:52.907Z,0.54
2023-11-26T18:15:20.261Z,0.54
2023-11-26T18:17:48.105Z,0.51
2023-11-26T18:20:19.434Z,0.48
2023-11-26T18:22:47.027Z,0.44
2023-11-26T18:25:14.824Z,0.46
2023-11-26T18:27:42.856Z,0.44
2023-11-26T18:30:11.541Z,0.42
2023-11-26T18:32:39.248Z,0.46
2023-11-26T18:35:06.538Z,0.43
2023-11-26T18:37:34.035Z,0.44
2023-11-26T18:40:01.437Z,0.36
2023-11-26T18:42:28.639Z,0.39
2023-11-26T18:44:56.522Z,0.32
2023-11-26T18:47:23.505Z,0.34
2023-11-26T18:49:50.596Z,0.29
2023-11-26T18:52:18.747Z,0.26
2023-11-26T18:54:46.431Z,0.23
2023-11-26T18:57:13.792Z,0.21
2023-11-26T18:59:41.590Z,0.19
2023-11-26T19:02:09.465Z,0.12
2023-11-26T19:04:39.603Z,0.18
2023-11-26T19:07:07.768Z,0.18
2023-11-26T19:09:35.159Z,0.17
2023-11-26T19:12:02.879Z,0.12
2023-11-26T19:14:31.237Z,0.11
2023-11-26T19:17:00.251Z,0.12
2023-11-26T19:19:27.343Z,0.09
2023-11-26T19:21:54.960Z,0.09
2023-11-26T19:24:22.051Z,0.08
2023-11-26T19:26:48.938Z,0.05
2023-11-26T19:29:15.924Z,0.02
2023-11-26T19:31:43.164Z,0.02
2023-11-26T19:34:10.497Z,0.01
2023-11-26T19:36:37.869Z,0.03
2023-11-26T19:39:04.863Z,0.05
2023-11-26T19:41:32.020Z,0.10
2023-11-26T19:43:59.067Z,0.11
2023-11-26T19:46:26.355Z,0.07
2023-11-26T19:48:53.368Z,0.10
2023-11-26T19:51:26.381Z,0.08
2023-11-26T19:53:54.769Z,0.10
2023-11-26T19:56:22.401Z,0.04
2023-11-26T19:58:49.298Z,-0.04
2023-11-26T20:01:19.006Z,-0.10
2023-11-26T20:03:46.988Z,-0.11
2023-11-26T20:06:14.276Z,-0.11
2023-11-26T20:08:41.423Z,-0.11
2023-11-26T20:11:09.823Z,-0.18
2023-11-26T20:13:37.044Z,-0.20
2023-11-26T20:16:04.467Z,-0.24
2023-11-26T20:18:34.934Z,-0.32
2023-11-26T20:21:02.770Z,-0.35
2023-11-26T20:23:29.974Z,-0.37
2023-11-26T20:25:56.927Z,-0.36
2023-11-26T20:28:24.719Z,-0.35
2023-11-26T20:30:55.878Z,-0.31
2023-11-26T20:33:30.891Z,-0.31
2023-11-26T20:35:57.954Z,-0.33
2023-11-26T20:38:24.849Z,-0.35
2023-11-26T20:40:53.122Z,-0.36
2023-11-26T20:43:20.112Z,-0.35
2023-11-26T20:45:47.324Z,-0.34
2023-11-26T20:48:14.268Z,-0.39
2023-11-26T20:50:41.997Z,-0.43
2023-11-26T20:53:08.919Z,-0.51
2023-11-26T20:55:36.066Z,-0.55
2023-11-26T20:58:03.475Z,-0.62
2023-11-26T21:00:30.356Z,-0.77
2023-11-26T21:02:59.902Z,-0.81
2023-11-26T21:05:26.946Z,-0.92
2023-11-26T21:07:53.860Z,-0.84
2023-11-26T21:10:22.880Z,-0.85
2023-11-26T21:12:50.040Z,-0.85
2023-11-26T21:15:17.062Z,-0.85
2023-11-26T21:17:44.056Z,-0.81
2023-11-26T21:20:12.747Z,-0.78
2023-11-26T21:22:41.259Z,-0.82
2023-11-26T21:25:08.586Z,-0.82
2023-11-26T21:27:35.906Z,-0.88
2023-11-26T21:30:03.324Z,-0.93
2023-11-26T21:32:31.502Z,-0.96
2023-11-26T21:34:59.060Z,-1.02
2023-11-26T21:37:30.217Z,-1.10
2023-11-26T21:39:57.223Z,-1.12
2023-11-26T21:42:24.220Z,-1.13
2023-11-26T21:44:51.504Z,-1.19
2023-11-26T21:47:18.524Z,-1.18
2023-11-26T21:49:48.484Z,-1.25
2023-11-26T21:52:16.605Z,-1.23
2023-11-26T21:54:43.812Z,-1.16
2023-11-26T21:57:10.681Z,-1.09
2023-11-26T21:59:37.637Z,-1.11
2023-11-26T22:02:04.998Z,-1.10
2023-11-26T22:04:32.451Z,-1.11
2023-11-26T22:06:59.397Z,-1.10
2023-11-26T22:09:26.309Z,-1.18
2023-11-26T22:11:53.877Z,-1.19
2023-11-26T22:14:20.889Z,-1.23
2023-11-26T22:16:48.268Z,-1.26
2023-11-26T22:19:15.168Z,-1.23
2023-11-26T22:21:42.117Z,-1.29
2023-11-26T22:24:09.686Z,-1.30
2023-11-26T22:26:40.405Z,-1.29
2023-11-26T22:29:07.427Z,-1.24
2023-11-26T22:31:34.831Z,-1.21
2023-11-26T22:34:02.649Z,-1.18
2023-11-26T22:36:31.602Z,-1.14
2023-11-26T22:38:59.365Z,-1.12
2023-11-26T22:41:28.482Z,-1.12
2023-11-26T22:43:59.459Z,-1.10
2023-11-26T22:46:28.347Z,-1.10
2023-11-26T22:48:58.409Z,-1.11
2023-11-26T22:51:26.143Z,-1.08
2023-11-26T22:53:53.858Z,-1.05
2023-11-26T22:56:25.765Z,-1.12
2023-11-26T22:58:56.377Z,-1.09
2023-11-26T23:01:24.164Z,-1.12
2023-11-26T23:03:52.838Z,-1.07
2023-11-26T23:06:20.081Z,-1.09
2023-11-26T23:08:46.978Z,-0.99
2023-11-26T23:11:19.852Z,-1.00
2023-11-26T23:13:47.640Z,-0.87
2023-11-26T23:16:17.836Z,-0.84
2023-11-26T23:18:45.312Z,-0.95
2023-11-26T23:21:16.328Z,-1.01
2023-11-26T23:23:51.743Z,-1.14
2023-11-26T23:26:23.657Z,-1.30
2023-11-26T23:28:51.074Z,-1.44
2023-11-26T23:31:19.753Z,-1.49
2023-11-26T23:33:48.418Z,-1.60
2023-11-26T23:36:16.149Z,-1.70
2023-11-26T23:38:44.481Z,-1.75
2023-11-26T23:41:12.526Z,-1.78
2023-11-26T23:43:40.598Z,-1.82
2023-11-26T23:46:08.031Z,-1.90
2023-11-26T23:48:35.054Z,-1.88
2023-11-26T23:51:02.046Z,-1.90
2023-11-26T23:53:29.283Z,-1.90
2023-11-26T23:55:56.124Z,-1.87
2023-11-26T23:58:23.069Z,-1.89
